PORT of FAABORG HAVN

Država: Denmark Država: Denmark (DK)
Latitude/Longitude: 55.094° / 10.235° Prikaži na mapi Prikaži na mapi
Vrijeme:  UTC +2
UN/LOCODE: DKFAA
Brod je Trenutno u Luci: 3

Posljednji dolasci i odlasci


Ime broda
Dolazak (UTC)
Dolazak (LT)
Isplovljenje (UTC)
Isplovljenje (LT)
Vessel Type: Putnički brodovi  FAABORG III 2014-09-19 04:10:00 2014-09-19 06:10:00 2014-09-19 04:56:00 2014-09-19 06:56:00
Vessel Type: Putnički brodovi  FAABORG III 2014-09-18 17:24:00 2014-09-18 19:24:00 2014-09-19 03:59:00 2014-09-19 05:59:00
Vessel Type: Putnički brodovi  SKJOLDNAES 2014-09-19 02:54:00 2014-09-19 04:54:00 2014-09-19 03:14:00 2014-09-19 05:14:00
Vessel Type: Putnički brodovi  FAABORG III 2014-09-18 15:30:00 2014-09-18 17:30:00 2014-09-18 16:05:00 2014-09-18 18:05:00
Vessel Type: Putnički brodovi  FAABORG III 2014-09-18 13:33:00 2014-09-18 15:33:00 2014-09-18 14:05:00 2014-09-18 16:05:00
Vessel Type: Putnički brodovi  SKJOLDNAES 2014-09-18 13:39:00 2014-09-18 15:39:00 2014-09-18 14:05:00 2014-09-18 16:05:00
Vessel Type: Putnički brodovi  FAABORG III 2014-09-18 11:31:00 2014-09-18 13:31:00 2014-09-18 12:06:00 2014-09-18 14:06:00
Vessel Type: Jahta, jedrilica  SOLFAR 2014-09-17 14:41:00 2014-09-17 16:41:00 2014-09-18 10:25:00 2014-09-18 12:25:00
Vessel Type: Putnički brodovi  FAABORG III 2014-09-18 09:32:00 2014-09-18 11:32:00 2014-09-18 10:04:00 2014-09-18 12:04:00
Vessel Type: Putnički brodovi  SKJOLDNAES 2014-09-18 08:10:00 2014-09-18 10:10:00 2014-09-18 08:44:00 2014-09-18 10:44:00

Očekivani dolasci


Ime broda
Scheduled Arrival (UTC)
Dolazak planiran (lokalno)
Približno vrijeme dolaska (UTC)
Približno vrijeme dolaska (lokalno)
Podaci nisu pronađeni

Wind Forecast


    
Vrijeme (UTC)
Brzina
Direction
Temperature
2014-09-19 06:00:00 13 knots 82° 14°C
2014-09-19 09:00:00 11 knots 86° 17°C
2014-09-19 12:00:00 9 knots 106° 18°C
2014-09-19 15:00:00 9 knots 103° 19°C
2014-09-19 18:00:00 9 knots 88° 18°C
2014-09-19 21:00:00 9 knots 76° 17°C
2014-09-20 00:00:00 8 knots 71° 17°C
2014-09-20 03:00:00 7 knots 67° 16°C
2014-09-20 06:00:00 6 knots 49° 16°C
2014-09-20 09:00:00 3 knots 62° 16°C
2014-09-20 12:00:00 1 knots 347° 18°C
2014-09-20 15:00:00 3 knots 299° 18°C
2014-09-20 18:00:00 3 knots 283° 18°C
2014-09-20 21:00:00 5 knots 268° 17°C
2014-09-21 00:00:00 8 knots 280° 16°C
2014-09-21 03:00:00 11 knots 303° 15°C